Valley Falls, NY (12185)

10:32 PM EDT on August 04, 2015 (GMT -0400)
Allenwaite Farm | | Change Station
CLOSE
Current Station
Personal Weather Station
Location: Schaghticoke, NY
Elevation: 371 ft
Nearby Weather Stations

Elev 371 ft 43.00 °N, 73.56 °W | Updated 7 minutes ago

Partly Cloudy
Partly Cloudy
69.4 °F
Feels Like 69.4 °F
N
0.0
Wind Variable Wind from SSW
Gusts 3.0 mph

Today
High -- | Low -- °F
--% Chance of Precip.
Yesterday
High -- | Low -- °F
Precip. -- in
5:48 AM 8:11 PM
Waning Gibbous, 72% visible
Pressure 29.91 in
Visibility 10.0 miles
Clouds Clear
Dew Point 58 °F
Humidity 68%
Rainfall 0.00 in
Snow Depth Not available.
UV 0 out of 12
Pollen 7.40 out of 12
Air Quality Not available.
Flu Activity Not available.
METAR KDDH 050154Z AUTO 22004KT 10SM CLR 17/14 A2993 RMK AO2 SLP129 T01670139

More Conditions Fewer Conditions

Pressure 29.91 in
Visibility 10.0 miles
Clouds Clear
Dew Point 58 °F
Humidity 68%
Rainfall 0.00 in
Snow Depth Not available.
UV 0 out of 12
Pollen 7.40 out of 12
Air Quality Not available.
Flu Activity Not available.
METAR KDDH 050154Z AUTO 22004KT 10SM CLR 17/14 A2993 RMK AO2 SLP129 T01670139

More Conditions Fewer Conditions

10-Day Weather Forecast

×

Almanac

Astronomy

Aug. 04, 2015 Rise Set
Actual Time
Civil Twilight
Nautical Twilight
Astronomical Twilight
Moon
Length of Visible Light
Length of Day
Tomorrow will be .
, % of the Moon is Illuminated

Today's Extremes

State Highs State Lows

Community

WunderPhotos

Upload Photos

1,844,087 photos uploaded!

WunderBlogs® & News

Nearby

Air Quality

  Air Quality AQ Index Pollutant
Not available.

Snow Depth

Station Depth Elevation

Earthquake Activity

City Distance Mag. Time & Date
Minimum magnitude displayed is 2.5.

Coastal Water Temperatures

Place Temperature

Stations

Nearby Weather Stations

Station Location Temp. Windchill Dew Point Humidity Wind Precip. Elev Updated Type